Nearby METAR Reports

 

LGBL - Nea Anchialos, Greece
Distance from station: SW 15km
Updated: 19/12/2014 02:50
Clear
Clear
 Wind from calm
Wind: Calm
Temperature: 6°C
Dew Point: 5°C
Humidity: 93%
Barometer: 1021 hPa
Summary: Clear
Visibility: greater than 10 km
2014/12/19 00:50 LGBL 190050Z 00000KT CAVOK 06/05 Q1021
LGSK - Skiathos Island, Greece
Distance from station: ESE 51km
Updated: 17/12/2014 10:50
NOT Current
Mostly cloudy
Mostly cloudy
 Wind from calm
Wind: Calm
Temperature: 13°C
Dew Point: 12°C
Humidity: 94%
Barometer: 1016 hPa
Clouds: Mostly cloudy
Visibility: 10 km
Cloud details: Few Clouds 396 m
Partly cloudy 914 m
Mostly cloudy 2438 m
2014/12/17 08:50 LGSK 170850Z 00000KT 9999 FEW013 SCT030 BKN080 13/12 Q1016
 
LGTS - Thessaloniki/Mik, Greece
Distance from station: N 135km
Updated: 19/12/2014 03:20
Fog, Overcast
Fog, Overcast
 Wind from varies
Wind: varies 6 km/h
Temperature: 5°C
Dew Point: 5°C
Humidity: 100%
Barometer: 1022 hPa
Summary: Fog
Clouds: Overcast
Visibility: 0 km
Cloud details: Overcast 61 m
2014/12/19 01:20 LGTS 190120Z VRB03KT 0100 R16/0400 R34/0500 FG OVC002 05/05 Q1022 NOSIG
LGSY - Skiros, Greece
Distance from station: ESE 139km
Updated: 16/12/2014 13:20
NOT Current
Partly cloudy
Partly cloudy
 Wind from SSE
Wind: SSE 15 km/h
Temperature: 15°C
Dew Point: 9°C
Humidity: 68%
Barometer: 1020 hPa
Clouds: Partly cloudy
Visibility: 10 km
Cloud details: Partly cloudy 610 m
Partly cloudy 5486 m
2014/12/16 11:20 LGSY 161120Z 15008KT 9999 SCT020 SCT180 15/09 Q1020 RMK FEW080 BLU
 
LGKZ - Kozani (civ/Army, Greece
Distance from station: NW 144km
Updated: 19/12/2014 03:20

 Wind from NNW
Wind: NNW 22 km/h
Temperature: 1°C
Wind Chill: -4°C
Dew Point: 1°C
Humidity: 100%
Barometer: 1021 hPa
2014/12/19 01:20 LGKZ 190120Z AUTO 33012KT //// // ////// 01/01 Q1021 RE//
LGEL - Elefsis (hel-Afb, Greece
Distance from station: SSE 147km
Updated: 19/12/2014 03:20
Clear
Clear
 Wind from calm
Wind: Calm
Temperature: 7°C
Dew Point: 6°C
Humidity: 93%
Barometer: 1020 hPa
Summary: Clear
Visibility: greater than 10 km
2014/12/19 01:20 LGEL 190120Z 00000KT CAVOK 07/06 Q1020
 
LGAV - Athens/Elef-Ven, Greece
Distance from station: SSE 176km
Updated: 19/12/2014 03:20
Few Clouds
Few Clouds
 Wind from varies
Wind: varies 4 km/h
Temperature: 7°C
Dew Point: 6°C
Humidity: 93%
Barometer: 1021 hPa
Clouds: Few Clouds
Visibility: 10 km
Cloud details: Few Clouds 762 m
2014/12/19 01:20 LGAV 190120Z VRB02KT 9999 FEW025 07/06 Q1021 NOSIG
LGRX - Araxos (civ/Afb), Greece
Distance from station: SW 182km
Updated: 19/12/2014 02:50
Clear
Clear
 Wind from calm
Wind: Calm
Temperature: 7°C
Dew Point: 7°C
Humidity: 100%
Barometer: 1020 hPa
Summary: Clear
Visibility: greater than 10 km
2014/12/19 00:50 LGRX 190050Z 00000KT CAVOK 07/07 Q1020
 
LGIO - Ioannina, Greece
Distance from station: WNW 187km
Updated: 19/12/2014 03:20

 Wind from varies
Wind: varies 4 km/h
2014/12/19 01:20 LGIO 190120Z AUTO VRB02KT //// // ////// 02/// Q1022 RE//
LGPZ - Preveza/Aktion, Greece
Distance from station: WSW 191km
Updated: 19/12/2014 02:50
Few Clouds
Few Clouds
 Wind from calm
Wind: Calm
Temperature: 10°C
Dew Point: 7°C
Humidity: 82%
Barometer: 1021 hPa
Clouds: Few Clouds
Visibility: 10 km
Cloud details: Few Clouds 549 m
2014/12/19 00:50 LGPZ 190050Z 00000KT 9999 FEW018 10/07 Q1021
 
LGLM - Limnos Island Ar, Greece
Distance from station: ENE 209km
Updated: 19/12/2014 03:20

 Wind from N
Wind: N 7 km/h
Temperature: 10°C
Wind Chill: 9°C
Dew Point: 9°C
Humidity: 94%
Barometer: 1020 hPa
2014/12/19 01:20 LGLM 190120Z AUTO 35004KT //// // ////// 10/09 Q1020 RE//
LGAD - Andravida (civ/A, Greece
Distance from station: SW 211km
Updated: 19/12/2014 02:50
Few Clouds
Few Clouds
 Wind from calm
Wind: Calm
Temperature: 7°C
Dew Point: 6°C
Humidity: 93%
Barometer: 1020 hPa
Clouds: Few Clouds
Visibility: 10 km
Cloud details: Few Clouds 610 m
2014/12/19 00:50 LGAD 190050Z 00000KT 9999 FEW020 07/06 Q1020
 
LGKV - Kavala/Chrisoupo, Greece
Distance from station: NE 230km
Updated: 19/12/2014 02:50
Few Clouds
Few Clouds
 Wind from calm
Wind: Calm
Temperature: 5°C
Dew Point: 5°C
Humidity: 100%
Barometer: 1021 hPa
Clouds: Few Clouds
Visibility: 8 km
Cloud details: Few Clouds 244 m
2014/12/19 00:50 LGKV 190050Z 00000KT 8000 FEW008 05/05 Q1021
LGKF - Kefallinia, Greece
Distance from station: WSW 249km
Updated: 18/12/2014 19:50
NOT Current
Partly cloudy
Partly cloudy
 Wind from calm
Wind: Calm
Temperature: 11°C
Dew Point: 10°C
Humidity: 94%
Barometer: 1017 hPa
Clouds: Partly cloudy
Visibility: 10 km
Cloud details: Few Clouds 549 m
Partly cloudy 2438 m
2014/12/18 17:50 LGKF 181750Z 00000KT 9999 FEW018 SCT080 11/10 Q1017
 
LGZA - Zakinthos Airpor, Greece
Distance from station: SW 249km
Updated: 19/12/2014 03:20

 Wind from varies
Wind: varies 4 km/h
Temperature: 8°C
Dew Point: 8°C
Humidity: 100%
Barometer: 1020 hPa
2014/12/19 01:20 LGZA 190120Z AUTO VRB02KT //// // ////// 08/08 Q1020 RE//
LGKL - Kalamata (hel-Af, Greece
Distance from station: SSW 261km
Updated: 19/12/2014 02:50
Few Clouds
Few Clouds
 Wind from NNW
Wind: NNW 9 km/h
Temperature: 7°C
Wind Chill: 6°C
Dew Point: 6°C
Humidity: 93%
Barometer: 1020 hPa
Clouds: Few Clouds
Visibility: 10 km
Cloud details: Few Clouds 762 m
2014/12/19 00:50 LGKL 190050Z 33005KT 9999 FEW025 07/06 Q1020
 
LGKR - Ioannis Kapodist, Greece
Distance from station: W 261km
Updated: 19/12/2014 03:20
Few Clouds
Few Clouds
 Wind from calm
Wind: Calm
Temperature: 7°C
Dew Point: 6°C
Humidity: 93%
Barometer: 1020 hPa
Clouds: Few Clouds
Visibility: 10 km
Cloud details: Few Clouds 549 m
2014/12/19 01:20 LGKR 190120Z 00000KT 9999 FEW018 07/06 Q1020 NOSIG
LGSO - Syros, Greece
Distance from station: SE 274km
Updated: 19/12/2014 03:20

 Wind from NNE
Wind: NNE 11 km/h
Temperature: 13°C
Dew Point: 11°C
Humidity: 88%
Barometer: 1019 hPa
2014/12/19 01:20 LGSO 190120Z AUTO 03006KT 330V040 //// // ////// 13/11 Q1019 RE//
 
LGMK - Mikonos Island, Greece
Distance from station: SE 296km
Updated: 18/12/2014 19:50
NOT Current
Light rain, Mostly cloudy
Light rain, Mostly cloudy
 Wind from N
Wind: N 7 km/h
Temperature: 13°C
Dew Point: 10°C
Humidity: 82%
Barometer: 1017 hPa
Summary: Light rain
Clouds: Mostly cloudy
Visibility: 10 km
Cloud details: Few Clouds 549 m
Partly cloudy 762 m
Mostly cloudy 2438 m
2014/12/18 17:50 LGMK 181750Z 36004KT 9999 -RA FEW018TCU SCT025 BKN080 13/10 Q1017